Copt Green, United Kingdom
Current Conditions -  °F | °C
As of 5:20 AM on Saturday 01 Nov 2014 (Local Time) from EGBB Reporting Station
Light Rain Light Rain  
Wind Chill: 55°   Ceiling: 4100
Heat Index: 55°   Visibility: 6mi
Dew Point: 52°   Wind: 10mph
Humidity: 88%   Direction: 240°WSW
Pressure: 29.88"   Gusts: NA
Location:  52.34°N, 1.81°W
Report Text: EGBB 010520Z 24009KT 190V280 9000 -RA FEW010 SCT032 BKN041 13/11 Q1012
Loading
Personal Weather Stations






























Interactive Weather Map
Tropical Storm Tracking
New forecast layout! Learn more

10-Day Weather Forecast

Advertisements
Track Severe Weather on mobile